Time;durP1;ratioP1;P1;durP2;ratioP2;P2;SDS_P1;SDS_P2;PMS_P1;PMS_P2;Temp;Humidity;BMP_temperature;BMP_pressure;BME280_temperature;BME280_humidity;BME280_pressure;Samples;Min_cycle;Max_cycle;Signal;HPM_P1;HPM_P2
2022/01/02 00:01:59;;;;;;;16.50;10.20;;;;;;;;;;4973729;28;20491;-70
2022/01/02 00:04:28;;;;;;;15.45;11.07;;;;;;;;;;4973623;28;20047;-70
2022/01/02 00:06:55;;;;;;;16.75;10.18;;;;;;;;;;4956176;28;20051;-71
2022/01/02 00:09:33;;;;;;;15.45;10.23;;;;;;;;;;4968882;28;20051;-70
2022/01/02 00:12:13;;;;;;;17.95;9.98;;;;;;;;;;4953849;28;20122;-70
2022/01/02 00:14:47;;;;;;;17.38;10.20;;;;;;;;;;4962052;28;20082;-70
2022/01/02 00:17:18;;;;;;;17.17;10.60;;;;;;;;;;4973302;28;20082;-70
2022/01/02 00:19:51;;;;;;;15.05;10.13;;;;;;;;;;4972894;28;20190;-70
2022/01/02 00:22:20;;;;;;;16.65;10.75;;;;;;;;;;4973392;28;20466;-69
2022/01/02 00:24:46;;;;;;;18.23;10.52;;;;;;;;;;4971906;28;20051;-69
2022/01/02 00:27:14;;;;;;;16.40;10.40;;;;;;;;;;4956110;28;20054;-70
2022/01/02 00:29:41;;;;;;;18.30;10.63;;;;;;;;;;4972891;28;20097;-70
2022/01/02 00:32:09;;;;;;;17.70;11.10;;;;;;;;;;4971994;28;20081;-70
2022/01/02 00:34:38;;;;;;;16.98;10.40;;;;;;;;;;4948510;29;20078;-70
2022/01/02 00:37:05;;;;;;;17.08;10.77;;;;;;;;;;4953762;28;20055;-70
2022/01/02 00:39:32;;;;;;;15.75;10.48;;;;;;;;;;4953840;28;20138;-71
2022/01/02 00:42:09;;;;;;;17.52;10.02;;;;;;;;;;4953420;28;20496;-71
2022/01/02 00:45:02;;;;;;;18.67;9.88;;;;;;;;;;4984798;28;20094;-71
2022/01/02 00:47:33;;;;;;;13.88;9.90;;;;;;;;;;4953630;28;20139;-70
2022/01/02 00:50:06;;;;;;;15.57;9.73;;;;;;;;;;4984560;28;20055;-71
2022/01/02 00:52:40;;;;;;;16.02;10.57;;;;;;;;;;4953470;28;20454;-71
2022/01/02 00:55:10;;;;;;;12.13;9.10;;;;;;;;;;4953943;28;20055;-71
2022/01/02 00:57:39;;;;;;;12.57;8.60;;;;;;;;;;4953454;28;20051;-71
2022/01/02 01:00:12;;;;;;;12.48;8.60;;;;;;;;;;4953576;28;20051;-70
2022/01/02 01:02:55;;;;;;;17.45;9.23;;;;;;;;;;4953294;28;20109;-71
2022/01/02 01:05:32;;;;;;;14.40;8.90;;;;;;;;;;4983822;28;20061;-71
2022/01/02 01:08:06;;;;;;;14.98;8.98;;;;;;;;;;4953542;28;20047;-71
2022/01/02 01:10:38;;;;;;;12.77;8.57;;;;;;;;;;4983186;28;20561;-70
2022/01/02 01:13:08;;;;;;;12.27;8.43;;;;;;;;;;4953042;28;20509;-71
2022/01/02 01:15:35;;;;;;;13.88;8.65;;;;;;;;;;4967977;28;20059;-71
2022/01/02 01:18:03;;;;;;;15.50;8.38;;;;;;;;;;4972572;28;20256;-70
2022/01/02 01:20:31;;;;;;;12.43;8.50;;;;;;;;;;4972733;28;20058;-70
2022/01/02 01:22:58;;;;;;;10.98;8.18;;;;;;;;;;4972419;28;20098;-70
2022/01/02 01:25:25;;;;;;;11.30;8.40;;;;;;;;;;4972514;28;20051;-71
2022/01/02 01:27:52;;;;;;;12.85;8.32;;;;;;;;;;4972439;28;20094;-71
2022/01/02 01:30:22;;;;;;;14.73;8.98;;;;;;;;;;4973498;28;20124;-71
2022/01/02 01:32:49;;;;;;;12.48;8.68;;;;;;;;;;4975760;28;20078;-70
2022/01/02 01:35:15;;;;;;;12.82;7.75;;;;;;;;;;4964459;28;20569;-71
2022/01/02 01:37:42;;;;;;;14.05;7.57;;;;;;;;;;4956548;29;20491;-70
2022/01/02 01:40:13;;;;;;;10.80;7.80;;;;;;;;;;4957059;28;20051;-71
2022/01/02 01:42:43;;;;;;;13.07;8.38;;;;;;;;;;4956523;28;20047;-71
2022/01/02 01:47:49;;;;;;;11.20;8.20;;;;;;;;;;4975817;28;20051;-72
2022/01/02 01:50:17;;;;;;;12.27;7.65;;;;;;;;;;4975484;28;20098;-70
2022/01/02 01:52:44;;;;;;;11.02;7.88;;;;;;;;;;4963122;28;20047;-70
2022/01/02 01:55:11;;;;;;;13.30;8.35;;;;;;;;;;4956558;28;20114;-70
2022/01/02 01:57:41;;;;;;;15.05;8.65;;;;;;;;;;4956374;28;20051;-71
2022/01/02 02:00:10;;;;;;;10.68;7.93;;;;;;;;;;4956636;28;20419;-71
2022/01/02 02:02:36;;;;;;;11.25;7.32;;;;;;;;;;4966499;28;20051;-71
2022/01/02 02:05:03;;;;;;;11.40;7.43;;;;;;;;;;4972701;28;20077;-71
2022/01/02 02:07:38;;;;;;;12.15;7.43;;;;;;;;;;4975546;28;20055;-71
2022/01/02 02:10:14;;;;;;;10.40;7.68;;;;;;;;;;4975504;28;20055;-70
2022/01/02 02:12:45;;;;;;;9.48;7.53;;;;;;;;;;4975009;28;20055;-71
2022/01/02 02:22:52;;;;;;;13.50;8.77;;;;;;;;;;4974450;28;20043;-71
2022/01/02 02:25:20;;;;;;;11.15;8.27;;;;;;;;;;4975444;28;20114;-71
2022/01/02 02:27:51;;;;;;;13.40;8.70;;;;;;;;;;5005955;28;20407;-71
2022/01/02 02:30:18;;;;;;;11.63;8.50;;;;;;;;;;4975125;28;20053;-71
2022/01/02 02:32:45;;;;;;;13.40;8.63;;;;;;;;;;4974407;28;20094;-71
2022/01/02 02:35:12;;;;;;;9.43;6.93;;;;;;;;;;4975103;28;20050;-71
2022/01/02 02:37:43;;;;;;;11.27;8.15;;;;;;;;;;4974810;28;20458;-70
2022/01/02 02:40:12;;;;;;;11.07;8.02;;;;;;;;;;4974976;28;20058;-70
2022/01/02 02:43:03;;;;;;;14.10;8.13;;;;;;;;;;4974641;28;20117;-70
2022/01/02 02:51:11;;;;;;;12.85;7.95;;;;;;;;;;4955481;29;20465;-71
2022/01/02 02:53:41;;;;;;;13.52;8.15;;;;;;;;;;4955120;28;20047;-70
2022/01/02 02:56:16;;;;;;;14.65;8.25;;;;;;;;;;4955447;28;20059;-70
2022/01/02 02:58:43;;;;;;;10.00;7.00;;;;;;;;;;4955318;28;20051;-70
2022/01/02 03:01:15;;;;;;;10.55;7.25;;;;;;;;;;4954310;29;20051;-70
2022/01/02 03:03:43;;;;;;;11.15;7.68;;;;;;;;;;4955017;28;20043;-71
2022/01/02 03:06:10;;;;;;;11.32;7.45;;;;;;;;;;4955220;28;20055;-71
2022/01/02 03:08:37;;;;;;;11.45;7.70;;;;;;;;;;4960533;28;20093;-71
2022/01/02 03:11:06;;;;;;;11.68;8.05;;;;;;;;;;4974359;28;20055;-71
2022/01/02 03:13:32;;;;;;;9.65;7.43;;;;;;;;;;4974039;28;20046;-70
2022/01/02 03:16:00;;;;;;;9.18;6.60;;;;;;;;;;4974423;28;20046;-71
2022/01/02 03:18:26;;;;;;;10.30;7.13;;;;;;;;;;4974114;28;20056;-71
2022/01/02 03:20:53;;;;;;;10.57;7.53;;;;;;;;;;4966021;28;20526;-71
2022/01/02 03:23:20;;;;;;;11.65;7.53;;;;;;;;;;4954644;28;20098;-71
2022/01/02 03:25:46;;;;;;;10.95;7.32;;;;;;;;;;4954875;28;20102;-71
2022/01/02 03:28:13;;;;;;;10.75;6.63;;;;;;;;;;4954684;28;20102;-71
2022/01/02 03:30:41;;;;;;;10.70;7.22;;;;;;;;;;4954859;28;20102;-71
2022/01/02 03:33:07;;;;;;;11.20;7.15;;;;;;;;;;4953640;28;20051;-71
2022/01/02 03:35:34;;;;;;;12.40;7.07;;;;;;;;;;4954574;28;20083;-71
2022/01/02 03:38:03;;;;;;;9.40;6.88;;;;;;;;;;4954386;28;20059;-71
2022/01/02 03:40:30;;;;;;;11.13;6.90;;;;;;;;;;4954549;28;20051;-71
2022/01/02 03:42:57;;;;;;;9.75;6.15;;;;;;;;;;4954491;28;20087;-71
2022/01/02 03:45:23;;;;;;;8.88;6.10;;;;;;;;;;4965690;28;20054;-71
2022/01/02 03:47:53;;;;;;;8.73;6.35;;;;;;;;;;4970984;28;20082;-71
2022/01/02 03:50:20;;;;;;;11.20;7.30;;;;;;;;;;4971332;28;20077;-71
2022/01/02 03:52:46;;;;;;;8.55;5.90;;;;;;;;;;4972787;28;20109;-71
2022/01/02 03:55:13;;;;;;;8.65;6.00;;;;;;;;;;4972375;28;20055;-70
2022/01/02 03:57:40;;;;;;;8.52;6.60;;;;;;;;;;4973502;28;20055;-71
2022/01/02 04:00:11;;;;;;;9.98;6.20;;;;;;;;;;4973917;28;20109;-70
2022/01/02 04:02:38;;;;;;;8.80;6.28;;;;;;;;;;4973190;28;20097;-70
2022/01/02 04:05:09;;;;;;;9.02;6.35;;;;;;;;;;5004730;28;20053;-71
2022/01/02 04:07:36;;;;;;;9.43;6.43;;;;;;;;;;4973321;28;20046;-69
2022/01/02 04:10:06;;;;;;;9.85;7.30;;;;;;;;;;4973406;28;20054;-70
2022/01/02 04:12:33;;;;;;;8.82;6.57;;;;;;;;;;4973211;28;20474;-70
2022/01/02 04:15:00;;;;;;;10.48;6.55;;;;;;;;;;4973219;28;20082;-69
2022/01/02 04:17:26;;;;;;;11.35;6.45;;;;;;;;;;4973290;28;20069;-70
2022/01/02 04:19:53;;;;;;;11.23;6.38;;;;;;;;;;4973102;28;20374;-70
2022/01/02 04:22:20;;;;;;;9.75;7.13;;;;;;;;;;4958983;28;20055;-70
2022/01/02 04:24:47;;;;;;;11.07;6.85;;;;;;;;;;4953612;28;20099;-70
2022/01/02 04:27:14;;;;;;;8.77;6.55;;;;;;;;;;4953788;28;20570;-69
2022/01/02 04:29:40;;;;;;;12.27;7.03;;;;;;;;;;4953726;28;20062;-69
2022/01/02 04:32:07;;;;;;;12.52;7.40;;;;;;;;;;4953843;28;20059;-69
2022/01/02 04:34:33;;;;;;;11.38;6.28;;;;;;;;;;4953683;28;20059;-70
2022/01/02 04:37:00;;;;;;;10.10;6.90;;;;;;;;;;4968284;28;20058;-70
2022/01/02 04:39:27;;;;;;;12.40;6.70;;;;;;;;;;4972818;28;20109;-70
2022/01/02 04:41:54;;;;;;;11.07;7.00;;;;;;;;;;4972845;28;20134;-71
2022/01/02 04:44:20;;;;;;;10.77;7.13;;;;;;;;;;4972741;28;20101;-71
2022/01/02 04:46:47;;;;;;;10.00;6.38;;;;;;;;;;4972867;28;20054;-71
2022/01/02 04:49:13;;;;;;;10.05;6.75;;;;;;;;;;4973203;28;20053;-70
2022/01/02 04:51:40;;;;;;;10.82;7.10;;;;;;;;;;4972894;28;20054;-71
2022/01/02 04:54:06;;;;;;;9.50;7.03;;;;;;;;;;4972711;28;20074;-70
2022/01/02 04:56:33;;;;;;;12.13;8.15;;;;;;;;;;5004024;28;20047;-71
2022/01/02 04:59:00;;;;;;;9.85;7.18;;;;;;;;;;4972836;28;20063;-71
2022/01/02 05:01:26;;;;;;;11.73;6.97;;;;;;;;;;4972251;28;20109;-71
2022/01/02 05:03:53;;;;;;;11.48;7.00;;;;;;;;;;4973003;28;20051;-72
2022/01/02 05:06:20;;;;;;;11.50;7.53;;;;;;;;;;4975396;28;20055;-72
2022/01/02 05:08:46;;;;;;;9.15;6.70;;;;;;;;;;4976765;28;20109;-72
2022/01/02 05:11:16;;;;;;;10.73;7.40;;;;;;;;;;4976566;28;20614;-72
2022/01/02 05:13:43;;;;;;;10.40;6.80;;;;;;;;;;4960474;28;20105;-72
2022/01/02 05:16:10;;;;;;;9.85;6.70;;;;;;;;;;4957276;28;20055;-72
2022/01/02 05:18:36;;;;;;;10.43;7.00;;;;;;;;;;4956980;28;20566;-72
2022/01/02 05:21:03;;;;;;;11.63;7.07;;;;;;;;;;4955840;29;20113;-71
2022/01/02 05:23:30;;;;;;;9.75;6.97;;;;;;;;;;4956948;28;20055;-72
2022/01/02 05:25:57;;;;;;;9.40;6.72;;;;;;;;;;4956876;28;20052;-71
2022/01/02 05:28:23;;;;;;;9.45;6.15;;;;;;;;;;4957004;28;20047;-71
2022/01/02 05:30:51;;;;;;;11.45;6.95;;;;;;;;;;4956834;28;20063;-69
2022/01/02 05:33:17;;;;;;;9.77;7.03;;;;;;;;;;4956325;28;20059;-70
2022/01/02 05:35:44;;;;;;;8.45;6.22;;;;;;;;;;4957074;28;20451;-70
2022/01/02 05:38:10;;;;;;;10.50;6.43;;;;;;;;;;4956750;28;20055;-70
2022/01/02 05:40:37;;;;;;;10.63;6.50;;;;;;;;;;4956646;28;20106;-70
2022/01/02 05:43:05;;;;;;;9.75;6.20;;;;;;;;;;4956554;28;20059;-70
2022/01/02 05:45:32;;;;;;;9.95;6.25;;;;;;;;;;4956748;28;20415;-70
2022/01/02 05:48:05;;;;;;;11.25;7.47;;;;;;;;;;4956429;28;20055;-71
2022/01/02 05:50:32;;;;;;;;;;;;;;;;;;4986669;28;20073;-71
2022/01/02 05:52:58;;;;;;;10.48;7.00;;;;;;;;;;4956123;29;19922;-71
2022/01/02 05:55:25;;;;;;;10.18;6.68;;;;;;;;;;4956421;29;20055;-71
2022/01/02 05:57:51;;;;;;;11.45;7.20;;;;;;;;;;4956277;28;20047;-71
2022/01/02 06:00:18;;;;;;;10.68;6.80;;;;;;;;;;4956500;28;20051;-70
2022/01/02 06:02:44;;;;;;;9.52;6.72;;;;;;;;;;4956154;28;20051;-71
2022/01/02 06:05:11;;;;;;;10.95;6.95;;;;;;;;;;4956440;28;20082;-71
2022/01/02 06:07:38;;;;;;;9.95;6.68;;;;;;;;;;4956255;28;20060;-71
2022/01/02 06:10:05;;;;;;;9.88;6.45;;;;;;;;;;4956164;28;20055;-70
2022/01/02 06:12:31;;;;;;;10.38;6.43;;;;;;;;;;4955898;28;20055;-70
2022/01/02 06:14:58;;;;;;;9.55;6.03;;;;;;;;;;4955935;28;20047;-71
2022/01/02 06:17:25;;;;;;;8.20;5.72;;;;;;;;;;4955605;28;20048;-71
2022/01/02 06:19:51;;;;;;;10.35;6.68;;;;;;;;;;4955847;28;20047;-70
2022/01/02 06:22:18;;;;;;;10.23;6.20;;;;;;;;;;4956028;28;20059;-70
2022/01/02 06:24:45;;;;;;;10.27;6.70;;;;;;;;;;4955643;28;20043;-69
2022/01/02 06:27:11;;;;;;;9.25;5.50;;;;;;;;;;4956036;28;20509;-70
2022/01/02 06:29:38;;;;;;;8.57;5.68;;;;;;;;;;4955641;28;20055;-72
2022/01/02 06:32:04;;;;;;;10.07;6.47;;;;;;;;;;4955653;28;20118;-72
2022/01/02 06:34:31;;;;;;;8.13;5.97;;;;;;;;;;4955537;28;20130;-70
2022/01/02 06:36:58;;;;;;;9.95;6.53;;;;;;;;;;4955730;28;20137;-71
2022/01/02 06:39:24;;;;;;;8.60;5.53;;;;;;;;;;4955647;28;20113;-71
2022/01/02 06:41:51;;;;;;;6.75;5.28;;;;;;;;;;4955437;28;20135;-71
2022/01/02 06:44:18;;;;;;;6.65;5.22;;;;;;;;;;4955464;28;20055;-70
2022/01/02 06:46:45;;;;;;;10.55;6.47;;;;;;;;;;4967224;28;20058;-71
2022/01/02 06:49:11;;;;;;;9.98;5.55;;;;;;;;;;5005802;28;20051;-71
2022/01/02 06:51:47;;;;;;;7.50;5.45;;;;;;;;;;4974700;28;20058;-71
2022/01/02 06:54:13;;;;;;;7.70;5.78;;;;;;;;;;4974727;28;20477;-70
2022/01/02 06:56:40;;;;;;;9.13;6.35;;;;;;;;;;5005673;28;20058;-71
2022/01/02 06:59:06;;;;;;;7.78;6.00;;;;;;;;;;4962948;28;20110;-71
2022/01/02 07:01:33;;;;;;;7.78;5.78;;;;;;;;;;4969637;28;20411;-71
2022/01/02 07:04:00;;;;;;;9.57;6.43;;;;;;;;;;4974356;28;20078;-71
2022/01/02 07:06:27;;;;;;;6.88;4.80;;;;;;;;;;4989395;28;20051;-70
2022/01/02 07:08:53;;;;;;;8.85;4.78;;;;;;;;;;4974233;28;20828;-71
2022/01/02 07:11:20;;;;;;;6.97;5.35;;;;;;;;;;4959754;28;20063;-71
2022/01/02 07:13:46;;;;;;;20.30;11.48;;;;;;;;;;4954919;28;20051;-71
2022/01/02 07:16:13;;;;;;;19.73;12.18;;;;;;;;;;4955069;28;20125;-70
2022/01/02 07:18:40;;;;;;;16.88;10.25;;;;;;;;;;4954923;28;20066;-69
2022/01/02 07:21:06;;;;;;;10.23;7.20;;;;;;;;;;4954866;28;20051;-69
2022/01/02 07:23:33;;;;;;;9.38;7.28;;;;;;;;;;4954747;28;20047;-70
2022/01/02 07:25:59;;;;;;;11.95;7.55;;;;;;;;;;4954840;28;20051;-71
2022/01/02 07:28:26;;;;;;;9.45;6.68;;;;;;;;;;4954036;28;20471;-69
2022/01/02 07:30:53;;;;;;;8.35;5.80;;;;;;;;;;4954548;28;20466;-69
2022/01/02 07:33:19;;;;;;;9.77;6.65;;;;;;;;;;4954798;28;20055;-68
2022/01/02 07:35:46;;;;;;;9.43;5.85;;;;;;;;;;4973469;28;20074;-69
2022/01/02 07:38:29;;;;;;;7.97;6.07;;;;;;;;;;4973926;28;20054;-69
2022/01/02 07:40:56;;;;;;;7.85;5.82;;;;;;;;;;4965653;28;20461;-69
2022/01/02 07:43:23;;;;;;;14.55;8.57;;;;;;;;;;4964548;28;20050;-70
2022/01/02 07:45:49;;;;;;;10.32;6.32;;;;;;;;;;4962579;28;20055;-71
2022/01/02 07:48:16;;;;;;;8.40;5.50;;;;;;;;;;4959546;28;20051;-70
2022/01/02 07:50:43;;;;;;;8.88;5.38;;;;;;;;;;4959454;28;20047;-68
2022/01/02 07:53:09;;;;;;;8.07;5.03;;;;;;;;;;4960302;28;20560;-70
2022/01/02 07:55:36;;;;;;;8.27;5.63;;;;;;;;;;4959991;28;20051;-70
2022/01/02 07:58:02;;;;;;;7.70;5.93;;;;;;;;;;4959579;28;20067;-70
2022/01/02 08:00:29;;;;;;;7.03;5.28;;;;;;;;;;4962163;28;20097;-68
2022/01/02 08:02:56;;;;;;;8.68;5.57;;;;;;;;;;4957195;28;20055;-69
2022/01/02 08:05:23;;;;;;;8.82;5.50;;;;;;;;;;4958603;28;20047;-69
2022/01/02 08:07:49;;;;;;;12.65;6.32;;;;;;;;;;4957078;28;20110;-70
2022/01/02 08:10:16;;;;;;;8.93;5.47;;;;;;;;;;4962534;28;20055;-70
2022/01/02 08:12:43;;;;;;;9.95;6.05;;;;;;;;;;4956401;28;20342;-69
2022/01/02 08:15:10;;;;;;;9.07;6.15;;;;;;;;;;4959605;28;20130;-70
2022/01/02 08:17:36;;;;;;;8.77;6.10;;;;;;;;;;4956800;28;20058;-70
2022/01/02 08:20:04;;;;;;;7.18;5.32;;;;;;;;;;4959711;28;20058;-70
2022/01/02 08:22:31;;;;;;;8.55;6.13;;;;;;;;;;4956802;28;20121;-70
2022/01/02 08:24:57;;;;;;;6.60;4.85;;;;;;;;;;4958480;28;20043;-70
2022/01/02 08:27:24;;;;;;;7.40;4.97;;;;;;;;;;4959285;28;20055;-69
2022/01/02 08:29:50;;;;;;;7.28;4.90;;;;;;;;;;4960754;28;20050;-70
2022/01/02 08:32:17;;;;;;;8.00;5.05;;;;;;;;;;4967468;28;20050;-71
2022/01/02 08:34:44;;;;;;;6.97;5.05;;;;;;;;;;4959409;28;20105;-71
2022/01/02 08:37:11;;;;;;;6.75;4.70;;;;;;;;;;4960323;28;20466;-70
2022/01/02 08:39:38;;;;;;;6.10;4.35;;;;;;;;;;4965678;28;20047;-71
2022/01/02 08:42:05;;;;;;;7.80;5.97;;;;;;;;;;4960227;28;20059;-71
2022/01/02 08:44:31;;;;;;;10.25;6.03;;;;;;;;;;4964669;28;20109;-71
2022/01/02 08:46:58;;;;;;;9.07;5.75;;;;;;;;;;4961298;28;20055;-71
2022/01/02 08:49:25;;;;;;;7.18;4.70;;;;;;;;;;4958203;28;20110;-70
2022/01/02 08:51:54;;;;;;;8.68;5.60;;;;;;;;;;4959130;28;20134;-69
2022/01/02 08:54:21;;;;;;;9.10;7.03;;;;;;;;;;4961209;28;20506;-69
2022/01/02 08:56:48;;;;;;;10.95;6.75;;;;;;;;;;4964680;28;20498;-69
2022/01/02 08:59:15;;;;;;;10.45;7.43;;;;;;;;;;4958544;28;20052;-69
2022/01/02 09:01:41;;;;;;;9.13;6.35;;;;;;;;;;4960437;28;20046;-69
2022/01/02 09:04:08;;;;;;;7.28;5.25;;;;;;;;;;4956986;28;20118;-68
2022/01/02 09:06:35;;;;;;;6.75;5.15;;;;;;;;;;4940205;28;20530;-74
2022/01/02 09:09:02;;;;;;;5.82;4.72;;;;;;;;;;4964513;28;20106;-70
2022/01/02 09:11:28;;;;;;;10.63;5.82;;;;;;;;;;4962355;28;20491;-73
2022/01/02 09:13:55;;;;;;;6.60;4.78;;;;;;;;;;4962125;28;20066;-75
2022/01/02 09:16:22;;;;;;;8.27;5.05;;;;;;;;;;4958353;28;20054;-73
2022/01/02 09:18:49;;;;;;;9.40;7.22;;;;;;;;;;4962959;28;20435;-74
2022/01/02 09:21:16;;;;;;;11.05;7.57;;;;;;;;;;4969549;28;20050;-75
2022/01/02 09:23:42;;;;;;;12.57;8.30;;;;;;;;;;4963089;28;20043;-74
2022/01/02 09:26:10;;;;;;;10.40;7.75;;;;;;;;;;4962197;28;20505;-74
2022/01/02 09:28:37;;;;;;;12.25;8.00;;;;;;;;;;4964840;28;20058;-72
2022/01/02 09:31:05;;;;;;;10.77;7.32;;;;;;;;;;4959916;28;20122;-76
2022/01/02 09:33:36;;;;;;;6.57;5.18;;;;;;;;;;4988568;28;20516;-75
2022/01/02 09:36:02;;;;;;;7.00;5.13;;;;;;;;;;4960427;28;20063;-70
2022/01/02 09:38:29;;;;;;;7.88;5.18;;;;;;;;;;4962326;28;20050;-71
2022/01/02 09:40:59;;;;;;;6.75;5.15;;;;;;;;;;4966810;28;20490;-70
2022/01/02 09:43:26;;;;;;;6.72;5.20;;;;;;;;;;4949079;28;20050;-73
2022/01/02 09:45:53;;;;;;;6.47;5.18;;;;;;;;;;4967098;28;20048;-74
2022/01/02 09:48:20;;;;;;;4.88;3.95;;;;;;;;;;4969051;28;20485;-69
2022/01/02 09:50:47;;;;;;;6.03;4.80;;;;;;;;;;4967623;28;20105;-73
2022/01/02 09:53:14;;;;;;;6.13;4.40;;;;;;;;;;4971978;28;20057;-68
2022/01/02 09:55:40;;;;;;;6.45;4.63;;;;;;;;;;4970394;28;20106;-69
2022/01/02 09:58:11;;;;;;;7.03;4.63;;;;;;;;;;4970991;28;20587;-68
2022/01/02 10:00:47;;;;;;;6.45;4.53;;;;;;;;;;4965565;28;20557;-67
2022/01/02 10:03:15;;;;;;;5.35;4.63;;;;;;;;;;4969360;28;20097;-67
2022/01/02 10:05:51;;;;;;;7.45;4.13;;;;;;;;;;4961080;28;20387;-66
2022/01/02 10:08:31;;;;;;;5.25;4.28;;;;;;;;;;4961666;28;20514;-67
2022/01/02 10:11:15;;;;;;;5.50;4.15;;;;;;;;;;4961563;28;20054;-67
2022/01/02 10:13:47;;;;;;;5.90;4.20;;;;;;;;;;4961580;28;20113;-67
2022/01/02 10:16:33;;;;;;;5.57;4.43;;;;;;;;;;4964485;28;20046;-66
2022/01/02 10:19:18;;;;;;;6.47;4.10;;;;;;;;;;4963110;28;20051;-66
2022/01/02 10:21:55;;;;;;;6.18;4.50;;;;;;;;;;4962696;28;20042;-66
2022/01/02 10:24:26;;;;;;;5.35;4.55;;;;;;;;;;4961198;28;20187;-67
2022/01/02 10:27:14;;;;;;;6.15;3.80;;;;;;;;;;4960532;28;20592;-66
2022/01/02 10:29:40;;;;;;;5.55;4.97;;;;;;;;;;4962951;28;20098;-66
2022/01/02 10:32:23;;;;;;;6.45;5.07;;;;;;;;;;4960686;28;20478;-67
2022/01/02 10:34:50;;;;;;;7.50;5.38;;;;;;;;;;4961183;28;20094;-67
2022/01/02 10:37:24;;;;;;;6.38;4.53;;;;;;;;;;4963517;28;20047;-66
2022/01/02 10:39:51;;;;;;;6.70;4.68;;;;;;;;;;4960396;28;20059;-67
2022/01/02 10:42:18;;;;;;;6.78;4.07;;;;;;;;;;4962356;28;20050;-66
2022/01/02 10:44:45;;;;;;;5.95;4.50;;;;;;;;;;4960648;28;20121;-67
2022/01/02 10:47:13;;;;;;;6.97;5.57;;;;;;;;;;4963668;28;20461;-67
2022/01/02 10:50:07;;;;;;;5.88;4.53;;;;;;;;;;4961353;28;20070;-65
2022/01/02 10:52:36;;;;;;;6.65;4.22;;;;;;;;;;4960940;28;21193;-67
2022/01/02 10:55:24;;;;;;;8.38;5.85;;;;;;;;;;4963209;28;20055;-66
2022/01/02 10:57:52;;;;;;;4.75;4.07;;;;;;;;;;4959731;28;20051;-67
2022/01/02 11:00:21;;;;;;;6.72;4.80;;;;;;;;;;4961068;28;20069;-67
2022/01/02 11:02:48;;;;;;;7.13;5.20;;;;;;;;;;4960358;28;20045;-65
2022/01/02 11:05:19;;;;;;;6.65;4.80;;;;;;;;;;4962594;28;20065;-66
2022/01/02 11:07:50;;;;;;;6.88;5.00;;;;;;;;;;4960084;28;20051;-67
2022/01/02 11:10:21;;;;;;;10.05;4.65;;;;;;;;;;4962981;28;20134;-66
2022/01/02 11:12:49;;;;;;;7.72;4.82;;;;;;;;;;4961624;28;20051;-68
2022/01/02 11:15:18;;;;;;;8.07;5.38;;;;;;;;;;4963692;28;20047;-67
2022/01/02 11:17:45;;;;;;;6.40;5.00;;;;;;;;;;4962954;28;20051;-68
2022/01/02 11:20:14;;;;;;;7.47;5.00;;;;;;;;;;4961040;28;20506;-67
2022/01/02 11:22:47;;;;;;;7.68;4.90;;;;;;;;;;4962763;28;20055;-66
2022/01/02 11:25:17;;;;;;;;;;;;;;;;;;4968806;28;20502;-66
2022/01/02 11:27:52;;;;;;;6.63;4.57;;;;;;;;;;4993618;28;20349;-66
2022/01/02 11:30:31;;;;;;;6.30;4.93;;;;;;;;;;4991529;28;20062;-67
2022/01/02 11:33:09;;;;;;;5.68;4.93;;;;;;;;;;4959136;28;20418;-66
2022/01/02 11:35:38;;;;;;;6.28;4.75;;;;;;;;;;4962710;28;20050;-66
2022/01/02 11:38:06;;;;;;;7.47;5.32;;;;;;;;;;4960546;28;20059;-65
2022/01/02 11:41:05;;;;;;;6.30;4.90;;;;;;;;;;4963019;28;20050;-66
2022/01/02 11:43:37;;;;;;;9.10;4.75;;;;;;;;;;4971194;28;20076;-67
2022/01/02 11:46:31;;;;;;;6.63;4.70;;;;;;;;;;4973696;28;20050;-66
2022/01/02 11:49:25;;;;;;;5.97;4.03;;;;;;;;;;4973734;28;20057;-67
2022/01/02 11:51:57;;;;;;;4.53;3.50;;;;;;;;;;4973749;28;20059;-67
2022/01/02 11:54:27;;;;;;;4.78;2.88;;;;;;;;;;4972036;28;20051;-66
2022/01/02 11:56:57;;;;;;;4.45;3.15;;;;;;;;;;4954109;28;20061;-66
2022/01/02 11:59:50;;;;;;;4.78;4.05;;;;;;;;;;4954364;29;20051;-67
2022/01/02 12:02:19;;;;;;;5.07;3.38;;;;;;;;;;4954876;28;20078;-66
2022/01/02 12:05:13;;;;;;;4.40;3.17;;;;;;;;;;4953893;28;20110;-66
2022/01/02 12:07:45;;;;;;;3.10;2.80;;;;;;;;;;4965719;28;20055;-66
2022/01/02 12:10:17;;;;;;;5.65;2.80;;;;;;;;;;4973403;28;20050;-67
2022/01/02 12:12:56;;;;;;;4.20;2.50;;;;;;;;;;4973098;28;20054;-67
2022/01/02 12:15:34;;;;;;;3.25;2.83;;;;;;;;;;4973105;28;20047;-65
2022/01/02 12:18:06;;;;;;;3.67;2.75;;;;;;;;;;4972949;28;20453;-67
2022/01/02 12:20:56;;;;;;;3.50;2.55;;;;;;;;;;4954026;28;20463;-66
2022/01/02 12:23:34;;;;;;;3.42;2.35;;;;;;;;;;4953810;28;20263;-67
2022/01/02 12:26:05;;;;;;;2.88;2.47;;;;;;;;;;4953905;28;20102;-65
2022/01/02 12:28:56;;;;;;;2.45;1.92;;;;;;;;;;4957051;28;20046;-66
2022/01/02 12:31:40;;;;;;;4.07;2.38;;;;;;;;;;4973294;28;20109;-67
2022/01/02 12:34:19;;;;;;;3.80;2.17;;;;;;;;;;4969088;28;20555;-66
2022/01/02 12:36:50;;;;;;;3.03;2.53;;;;;;;;;;4953620;28;20554;-67
2022/01/02 12:39:28;;;;;;;3.45;2.17;;;;;;;;;;4953803;29;20574;-67
2022/01/02 12:42:00;;;;;;;2.97;2.00;;;;;;;;;;4953936;28;20131;-67
2022/01/02 12:44:29;;;;;;;2.72;2.03;;;;;;;;;;4953234;28;20099;-70
2022/01/02 12:46:58;;;;;;;2.60;2.00;;;;;;;;;;4953120;28;20055;-67
2022/01/02 12:49:27;;;;;;;3.75;2.08;;;;;;;;;;4953477;28;20051;-69
2022/01/02 12:51:58;;;;;;;4.47;3.17;;;;;;;;;;4953305;28;20430;-68
2022/01/02 12:54:29;;;;;;;8.93;3.75;;;;;;;;;;4965969;28;20055;-69
2022/01/02 12:56:58;;;;;;;7.35;3.15;;;;;;;;;;4958146;28;20388;-66
2022/01/02 12:59:31;;;;;;;3.58;2.00;;;;;;;;;;4963854;28;20102;-69
2022/01/02 13:02:11;;;;;;;3.33;2.10;;;;;;;;;;4958827;28;20055;-68
2022/01/02 13:04:39;;;;;;;2.03;1.55;;;;;;;;;;4963532;28;20557;-69
2022/01/02 13:07:12;;;;;;;3.40;1.85;;;;;;;;;;4962682;28;20578;-68
2022/01/02 13:09:45;;;;;;;2.60;2.03;;;;;;;;;;4958668;28;20078;-67
2022/01/02 13:12:19;;;;;;;1.95;1.35;;;;;;;;;;4960411;28;20050;-69
2022/01/02 13:14:47;;;;;;;3.15;1.95;;;;;;;;;;4959544;28;20106;-69
2022/01/02 13:17:24;;;;;;;2.80;2.05;;;;;;;;;;4961700;28;20082;-69
2022/01/02 13:19:50;;;;;;;3.28;2.15;;;;;;;;;;4976519;28;20047;-68
2022/01/02 13:22:19;;;;;;;2.22;1.50;;;;;;;;;;4958849;28;20475;-68
2022/01/02 13:24:46;;;;;;;2.63;1.70;;;;;;;;;;4961528;28;20047;-68
2022/01/02 13:27:13;;;;;;;3.22;1.88;;;;;;;;;;4992098;28;20047;-70
2022/01/02 13:29:40;;;;;;;2.28;1.70;;;;;;;;;;4963636;28;20051;-70
2022/01/02 13:32:16;;;;;;;2.47;1.27;;;;;;;;;;4963269;28;20050;-68
2022/01/02 13:34:43;;;;;;;2.10;1.40;;;;;;;;;;4961749;28;20074;-69
2022/01/02 13:37:10;;;;;;;1.90;1.27;;;;;;;;;;4966221;28;20466;-67
2022/01/02 13:39:40;;;;;;;2.33;1.73;;;;;;;;;;4962058;28;20051;-67
2022/01/02 13:42:07;;;;;;;2.63;1.30;;;;;;;;;;4963911;28;20054;-68
2022/01/02 13:44:43;;;;;;;3.20;1.20;;;;;;;;;;4961893;28;20055;-69
2022/01/02 13:47:11;;;;;;;2.55;1.40;;;;;;;;;;4966983;28;20102;-68
2022/01/02 13:49:46;;;;;;;1.30;1.15;;;;;;;;;;4963500;28;20506;-69
2022/01/02 13:52:13;;;;;;;2.72;1.40;;;;;;;;;;4965124;28;20050;-68
2022/01/02 13:54:43;;;;;;;2.15;1.35;;;;;;;;;;4963661;28;20042;-68
2022/01/02 13:57:10;;;;;;;2.97;1.25;;;;;;;;;;4961838;28;20051;-68
2022/01/02 13:59:37;;;;;;;4.32;1.85;;;;;;;;;;4966763;28;20047;-68
2022/01/02 14:02:04;;;;;;;3.70;1.50;;;;;;;;;;4965815;28;20054;-69
2022/01/02 14:04:57;;;;;;;4.75;2.25;;;;;;;;;;4965809;28;20062;-69
2022/01/02 14:07:28;;;;;;;3.30;1.87;;;;;;;;;;4964597;28;20577;-69
2022/01/02 14:09:55;;;;;;;1.40;1.23;;;;;;;;;;4964455;28;20086;-68
2022/01/02 14:12:26;;;;;;;1.85;1.23;;;;;;;;;;4961817;28;20059;-69
2022/01/02 14:15:02;;;;;;;4.32;1.50;;;;;;;;;;4962981;28;20487;-68
2022/01/02 14:17:33;;;;;;;1.88;1.30;;;;;;;;;;4968950;28;20043;-68
2022/01/02 14:20:03;;;;;;;2.00;1.48;;;;;;;;;;4961010;28;20138;-67
2022/01/02 14:22:33;;;;;;;3.67;2.00;;;;;;;;;;4977201;28;20066;-68
2022/01/02 14:24:59;;;;;;;3.63;2.08;;;;;;;;;;4963378;28;20047;-68
2022/01/02 14:27:29;;;;;;;3.05;1.95;;;;;;;;;;4962445;28;20046;-68
2022/01/02 14:29:56;;;;;;;2.20;1.58;;;;;;;;;;4964071;28;20051;-68
2022/01/02 14:32:23;;;;;;;2.40;1.50;;;;;;;;;;4962961;28;20046;-69
2022/01/02 14:34:50;;;;;;;2.53;1.45;;;;;;;;;;4961536;28;20518;-67
2022/01/02 14:37:18;;;;;;;2.63;1.30;;;;;;;;;;4962989;28;20061;-67
2022/01/02 14:39:45;;;;;;;2.17;1.63;;;;;;;;;;4963680;28;20046;-66
2022/01/02 14:42:12;;;;;;;4.35;1.70;;;;;;;;;;4965158;28;20051;-69
2022/01/02 14:44:39;;;;;;;2.58;1.50;;;;;;;;;;4965640;28;20054;-67
2022/01/02 14:47:26;;;;;;;2.88;1.50;;;;;;;;;;4960573;28;20161;-66
2022/01/02 14:49:53;;;;;;;3.78;1.58;;;;;;;;;;4959852;28;20057;-65
2022/01/02 14:52:20;;;;;;;5.47;1.50;;;;;;;;;;4960975;28;20059;-67
2022/01/02 14:54:46;;;;;;;2.17;1.48;;;;;;;;;;4959921;28;20051;-67
2022/01/02 14:57:13;;;;;;;6.03;2.08;;;;;;;;;;4961264;28;20054;-66
2022/01/02 14:59:39;;;;;;;3.50;2.00;;;;;;;;;;4959442;28;20098;-66
2022/01/02 15:02:06;;;;;;;2.60;1.55;;;;;;;;;;4958301;28;20094;-67
2022/01/02 15:04:33;;;;;;;3.72;2.38;;;;;;;;;;4958912;28;20110;-66
2022/01/02 15:06:59;;;;;;;5.03;2.08;;;;;;;;;;4960325;28;20121;-67
2022/01/02 15:09:27;;;;;;;3.22;1.52;;;;;;;;;;4958740;28;20055;-67